sensor_id;sensor_type;location;lat;lon;timestamp;temperature;humidity
20546;DHT22;10431;50.228;9.112;2023-09-12T00:00:22;23.60;99.90
20546;DHT22;10431;50.228;9.112;2023-09-12T00:02:49;23.70;99.90
20546;DHT22;10431;50.228;9.112;2023-09-12T00:05:15;23.60;99.90
20546;DHT22;10431;50.228;9.112;2023-09-12T00:07:41;23.60;99.90
20546;DHT22;10431;50.228;9.112;2023-09-12T00:10:08;23.60;99.90
20546;DHT22;10431;50.228;9.112;2023-09-12T00:12:34;23.60;99.90
20546;DHT22;10431;50.228;9.112;2023-09-12T00:15:00;23.60;99.90
20546;DHT22;10431;50.228;9.112;2023-09-12T00:17:30;23.60;99.90
20546;DHT22;10431;50.228;9.112;2023-09-12T00:19:56;23.60;99.90
20546;DHT22;10431;50.228;9.112;2023-09-12T00:22:22;23.60;99.90
20546;DHT22;10431;50.228;9.112;2023-09-12T00:24:48;23.60;99.90
20546;DHT22;10431;50.228;9.112;2023-09-12T00:27:14;23.60;99.90
20546;DHT22;10431;50.228;9.112;2023-09-12T00:29:40;23.60;99.90
20546;DHT22;10431;50.228;9.112;2023-09-12T00:32:07;23.60;99.90
20546;DHT22;10431;50.228;9.112;2023-09-12T00:34:33;23.60;99.90
20546;DHT22;10431;50.228;9.112;2023-09-12T00:36:59;23.60;99.90
20546;DHT22;10431;50.228;9.112;2023-09-12T00:39:26;23.60;99.90
20546;DHT22;10431;50.228;9.112;2023-09-12T00:41:52;23.60;99.90
20546;DHT22;10431;50.228;9.112;2023-09-12T00:44:18;23.60;99.90
20546;DHT22;10431;50.228;9.112;2023-09-12T00:46:44;23.60;99.90
20546;DHT22;10431;50.228;9.112;2023-09-12T00:49:12;23.60;99.90
20546;DHT22;10431;50.228;9.112;2023-09-12T00:51:39;23.60;99.90
20546;DHT22;10431;50.228;9.112;2023-09-12T00:54:06;23.60;99.90
20546;DHT22;10431;50.228;9.112;2023-09-12T00:56:33;23.60;99.90
20546;DHT22;10431;50.228;9.112;2023-09-12T00:59:00;23.60;99.90
20546;DHT22;10431;50.228;9.112;2023-09-12T01:01:27;23.60;99.90
20546;DHT22;10431;50.228;9.112;2023-09-12T01:03:54;23.60;99.90
20546;DHT22;10431;50.228;9.112;2023-09-12T01:06:23;23.60;99.90
20546;DHT22;10431;50.228;9.112;2023-09-12T01:08:52;23.60;99.90
20546;DHT22;10431;50.228;9.112;2023-09-12T01:11:18;23.60;99.90
20546;DHT22;10431;50.228;9.112;2023-09-12T01:13:45;23.60;99.90
20546;DHT22;10431;50.228;9.112;2023-09-12T01:16:11;23.60;99.90
20546;DHT22;10431;50.228;9.112;2023-09-12T01:18:37;23.60;99.90
20546;DHT22;10431;50.228;9.112;2023-09-12T01:24:03;23.60;99.90
20546;DHT22;10431;50.228;9.112;2023-09-12T01:29:20;23.60;99.90
20546;DHT22;10431;50.228;9.112;2023-09-12T01:31:47;23.60;99.90
20546;DHT22;10431;50.228;9.112;2023-09-12T01:34:15;23.60;99.90
20546;DHT22;10431;50.228;9.112;2023-09-12T01:36:41;23.60;99.90
20546;DHT22;10431;50.228;9.112;2023-09-12T01:39:07;23.60;99.90
20546;DHT22;10431;50.228;9.112;2023-09-12T01:41:35;23.60;99.90
20546;DHT22;10431;50.228;9.112;2023-09-12T01:44:06;23.60;99.90
20546;DHT22;10431;50.228;9.112;2023-09-12T01:46:34;23.60;99.90
20546;DHT22;10431;50.228;9.112;2023-09-12T01:49:02;23.50;99.90
20546;DHT22;10431;50.228;9.112;2023-09-12T01:51:30;23.50;99.90
20546;DHT22;10431;50.228;9.112;2023-09-12T01:53:57;23.50;99.90
20546;DHT22;10431;50.228;9.112;2023-09-12T01:56:25;23.50;99.90
20546;DHT22;10431;50.228;9.112;2023-09-12T01:58:51;23.50;99.90
20546;DHT22;10431;50.228;9.112;2023-09-12T02:01:18;23.60;99.90
20546;DHT22;10431;50.228;9.112;2023-09-12T02:03:44;23.60;99.90
20546;DHT22;10431;50.228;9.112;2023-09-12T02:06:10;23.50;99.90
20546;DHT22;10431;50.228;9.112;2023-09-12T02:08:36;23.50;99.90
20546;DHT22;10431;50.228;9.112;2023-09-12T02:11:02;23.50;99.90
20546;DHT22;10431;50.228;9.112;2023-09-12T02:13:29;23.50;99.90
20546;DHT22;10431;50.228;9.112;2023-09-12T02:16:01;23.50;99.90
20546;DHT22;10431;50.228;9.112;2023-09-12T02:18:29;23.50;99.90
20546;DHT22;10431;50.228;9.112;2023-09-12T02:20:55;23.50;99.90
20546;DHT22;10431;50.228;9.112;2023-09-12T02:23:23;23.50;99.90
20546;DHT22;10431;50.228;9.112;2023-09-12T02:25:50;23.50;99.90
20546;DHT22;10431;50.228;9.112;2023-09-12T02:28:16;23.60;99.90
20546;DHT22;10431;50.228;9.112;2023-09-12T02:30:42;23.50;99.90
20546;DHT22;10431;50.228;9.112;2023-09-12T02:33:08;23.50;99.90
20546;DHT22;10431;50.228;9.112;2023-09-12T02:35:35;23.50;99.90
20546;DHT22;10431;50.228;9.112;2023-09-12T02:38:01;23.50;99.90
20546;DHT22;10431;50.228;9.112;2023-09-12T02:40:27;23.50;99.90
20546;DHT22;10431;50.228;9.112;2023-09-12T02:42:53;23.50;99.90
20546;DHT22;10431;50.228;9.112;2023-09-12T02:45:19;23.50;99.90
20546;DHT22;10431;50.228;9.112;2023-09-12T02:47:46;23.60;99.90
20546;DHT22;10431;50.228;9.112;2023-09-12T02:50:13;23.50;99.90
20546;DHT22;10431;50.228;9.112;2023-09-12T02:52:39;23.50;99.90
20546;DHT22;10431;50.228;9.112;2023-09-12T02:55:06;23.50;99.90
20546;DHT22;10431;50.228;9.112;2023-09-12T02:57:32;23.50;99.90
20546;DHT22;10431;50.228;9.112;2023-09-12T02:59:58;23.50;99.90
20546;DHT22;10431;50.228;9.112;2023-09-12T03:02:25;23.50;99.90
20546;DHT22;10431;50.228;9.112;2023-09-12T03:04:51;23.50;99.90
20546;DHT22;10431;50.228;9.112;2023-09-12T03:07:18;23.50;99.90
20546;DHT22;10431;50.228;9.112;2023-09-12T03:09:44;23.50;99.90
20546;DHT22;10431;50.228;9.112;2023-09-12T03:12:10;23.50;99.90
20546;DHT22;10431;50.228;9.112;2023-09-12T03:14:37;23.50;99.90
20546;DHT22;10431;50.228;9.112;2023-09-12T03:17:03;23.50;99.90
20546;DHT22;10431;50.228;9.112;2023-09-12T03:19:30;23.50;99.90
20546;DHT22;10431;50.228;9.112;2023-09-12T03:21:57;23.50;99.90
20546;DHT22;10431;50.228;9.112;2023-09-12T03:24:24;23.50;99.90
20546;DHT22;10431;50.228;9.112;2023-09-12T03:26:51;23.50;99.90
20546;DHT22;10431;50.228;9.112;2023-09-12T03:29:17;23.50;99.90
20546;DHT22;10431;50.228;9.112;2023-09-12T03:31:44;23.50;99.90
20546;DHT22;10431;50.228;9.112;2023-09-12T03:34:10;23.50;99.90
20546;DHT22;10431;50.228;9.112;2023-09-12T03:36:36;23.50;99.90
20546;DHT22;10431;50.228;9.112;2023-09-12T03:39:03;23.50;99.90
20546;DHT22;10431;50.228;9.112;2023-09-12T03:41:31;23.50;99.90
20546;DHT22;10431;50.228;9.112;2023-09-12T03:43:57;23.50;99.90
20546;DHT22;10431;50.228;9.112;2023-09-12T03:46:24;23.50;99.90
20546;DHT22;10431;50.228;9.112;2023-09-12T03:48:50;23.50;99.90
20546;DHT22;10431;50.228;9.112;2023-09-12T03:51:16;23.50;99.90
20546;DHT22;10431;50.228;9.112;2023-09-12T03:53:43;23.50;99.90
20546;DHT22;10431;50.228;9.112;2023-09-12T03:56:09;23.50;99.90
20546;DHT22;10431;50.228;9.112;2023-09-12T03:58:39;23.50;99.90
20546;DHT22;10431;50.228;9.112;2023-09-12T04:01:06;23.50;99.90
20546;DHT22;10431;50.228;9.112;2023-09-12T04:03:32;23.40;99.90
20546;DHT22;10431;50.228;9.112;2023-09-12T04:05:59;23.50;99.90
20546;DHT22;10431;50.228;9.112;2023-09-12T04:08:25;23.50;99.90
20546;DHT22;10431;50.228;9.112;2023-09-12T04:10:51;23.50;99.90
20546;DHT22;10431;50.228;9.112;2023-09-12T04:13:17;23.40;99.90
20546;DHT22;10431;50.228;9.112;2023-09-12T04:15:44;23.40;99.90
20546;DHT22;10431;50.228;9.112;2023-09-12T04:18:10;23.50;99.90
20546;DHT22;10431;50.228;9.112;2023-09-12T04:20:36;23.40;99.90
20546;DHT22;10431;50.228;9.112;2023-09-12T04:23:03;23.40;99.90
20546;DHT22;10431;50.228;9.112;2023-09-12T04:25:30;23.40;99.90
20546;DHT22;10431;50.228;9.112;2023-09-12T04:27:56;23.40;99.90
20546;DHT22;10431;50.228;9.112;2023-09-12T04:30:23;23.50;99.90
20546;DHT22;10431;50.228;9.112;2023-09-12T04:32:49;23.40;99.90
20546;DHT22;10431;50.228;9.112;2023-09-12T04:35:15;23.40;99.90
20546;DHT22;10431;50.228;9.112;2023-09-12T04:37:41;23.40;99.90
20546;DHT22;10431;50.228;9.112;2023-09-12T04:40:09;23.40;99.90
20546;DHT22;10431;50.228;9.112;2023-09-12T04:42:35;23.40;99.90
20546;DHT22;10431;50.228;9.112;2023-09-12T04:45:01;23.40;99.90
20546;DHT22;10431;50.228;9.112;2023-09-12T04:47:27;23.40;99.90
20546;DHT22;10431;50.228;9.112;2023-09-12T04:49:54;23.40;99.90
20546;DHT22;10431;50.228;9.112;2023-09-12T04:52:20;23.40;99.90
20546;DHT22;10431;50.228;9.112;2023-09-12T04:54:46;23.40;99.90
20546;DHT22;10431;50.228;9.112;2023-09-12T04:57:12;23.40;99.90
20546;DHT22;10431;50.228;9.112;2023-09-12T04:59:39;23.40;99.90
20546;DHT22;10431;50.228;9.112;2023-09-12T05:02:05;23.40;99.90
20546;DHT22;10431;50.228;9.112;2023-09-12T05:04:31;23.40;99.90
20546;DHT22;10431;50.228;9.112;2023-09-12T05:06:58;23.40;99.90
20546;DHT22;10431;50.228;9.112;2023-09-12T05:09:24;23.40;99.90
20546;DHT22;10431;50.228;9.112;2023-09-12T05:11:50;23.40;99.90
20546;DHT22;10431;50.228;9.112;2023-09-12T05:14:16;23.40;99.90
20546;DHT22;10431;50.228;9.112;2023-09-12T05:16:42;23.40;99.90
20546;DHT22;10431;50.228;9.112;2023-09-12T05:19:09;23.40;99.90
20546;DHT22;10431;50.228;9.112;2023-09-12T05:21:35;23.40;99.90
20546;DHT22;10431;50.228;9.112;2023-09-12T05:24:01;23.40;99.90
20546;DHT22;10431;50.228;9.112;2023-09-12T05:26:27;23.40;99.90
20546;DHT22;10431;50.228;9.112;2023-09-12T05:28:53;23.40;99.90
20546;DHT22;10431;50.228;9.112;2023-09-12T05:31:20;23.40;99.90
20546;DHT22;10431;50.228;9.112;2023-09-12T05:33:46;23.40;99.90
20546;DHT22;10431;50.228;9.112;2023-09-12T05:36:13;23.30;99.90
20546;DHT22;10431;50.228;9.112;2023-09-12T05:38:39;23.40;99.90
20546;DHT22;10431;50.228;9.112;2023-09-12T05:41:06;23.40;99.90
20546;DHT22;10431;50.228;9.112;2023-09-12T05:43:33;23.30;99.90
20546;DHT22;10431;50.228;9.112;2023-09-12T05:45:59;23.40;99.90
20546;DHT22;10431;50.228;9.112;2023-09-12T05:48:26;23.30;99.90
20546;DHT22;10431;50.228;9.112;2023-09-12T05:50:52;23.40;99.90
20546;DHT22;10431;50.228;9.112;2023-09-12T05:53:18;23.30;99.90
20546;DHT22;10431;50.228;9.112;2023-09-12T05:55:45;23.30;99.90
20546;DHT22;10431;50.228;9.112;2023-09-12T05:58:11;23.30;99.90
20546;DHT22;10431;50.228;9.112;2023-09-12T06:00:37;23.30;99.90
20546;DHT22;10431;50.228;9.112;2023-09-12T06:03:04;23.40;99.90
20546;DHT22;10431;50.228;9.112;2023-09-12T06:05:30;23.40;99.90
20546;DHT22;10431;50.228;9.112;2023-09-12T06:07:56;23.30;99.90
20546;DHT22;10431;50.228;9.112;2023-09-12T06:10:22;23.30;99.90
20546;DHT22;10431;50.228;9.112;2023-09-12T06:12:48;23.40;99.90
20546;DHT22;10431;50.228;9.112;2023-09-12T06:15:15;23.30;99.90
20546;DHT22;10431;50.228;9.112;2023-09-12T06:17:41;23.00;99.90
20546;DHT22;10431;50.228;9.112;2023-09-12T06:20:08;22.70;99.90
20546;DHT22;10431;50.228;9.112;2023-09-12T06:22:34;22.50;99.90
20546;DHT22;10431;50.228;9.112;2023-09-12T06:25:01;22.50;99.90
20546;DHT22;10431;50.228;9.112;2023-09-12T06:27:28;22.50;99.90
20546;DHT22;10431;50.228;9.112;2023-09-12T06:29:54;22.50;99.90
20546;DHT22;10431;50.228;9.112;2023-09-12T06:32:20;22.50;99.90
20546;DHT22;10431;50.228;9.112;2023-09-12T06:34:46;22.40;99.90
20546;DHT22;10431;50.228;9.112;2023-09-12T06:37:13;22.10;99.90
20546;DHT22;10431;50.228;9.112;2023-09-12T06:39:39;22.00;99.90
20546;DHT22;10431;50.228;9.112;2023-09-12T06:42:06;21.80;99.90
20546;DHT22;10431;50.228;9.112;2023-09-12T06:44:32;21.60;99.90
20546;DHT22;10431;50.228;9.112;2023-09-12T06:46:59;21.70;99.90
20546;DHT22;10431;50.228;9.112;2023-09-12T06:49:25;21.80;99.90
20546;DHT22;10431;50.228;9.112;2023-09-12T06:51:51;21.80;99.90
20546;DHT22;10431;50.228;9.112;2023-09-12T06:54:17;21.90;99.90
20546;DHT22;10431;50.228;9.112;2023-09-12T06:56:43;22.00;99.90
20546;DHT22;10431;50.228;9.112;2023-09-12T06:59:10;22.10;99.90
20546;DHT22;10431;50.228;9.112;2023-09-12T07:01:37;22.20;99.90
20546;DHT22;10431;50.228;9.112;2023-09-12T07:04:03;22.20;99.90
20546;DHT22;10431;50.228;9.112;2023-09-12T07:06:29;22.20;99.90
20546;DHT22;10431;50.228;9.112;2023-09-12T07:08:56;22.20;99.90
20546;DHT22;10431;50.228;9.112;2023-09-12T07:11:22;22.30;99.90
20546;DHT22;10431;50.228;9.112;2023-09-12T07:13:50;22.30;99.90
20546;DHT22;10431;50.228;9.112;2023-09-12T07:16:16;22.30;99.90
20546;DHT22;10431;50.228;9.112;2023-09-12T07:18:42;22.30;99.90
20546;DHT22;10431;50.228;9.112;2023-09-12T07:21:09;22.40;99.90
20546;DHT22;10431;50.228;9.112;2023-09-12T07:23:37;22.40;99.90
20546;DHT22;10431;50.228;9.112;2023-09-12T07:26:03;22.40;99.90
20546;DHT22;10431;50.228;9.112;2023-09-12T07:28:30;22.40;99.90
20546;DHT22;10431;50.228;9.112;2023-09-12T07:30:57;22.40;99.90
20546;DHT22;10431;50.228;9.112;2023-09-12T07:33:23;22.40;99.90
20546;DHT22;10431;50.228;9.112;2023-09-12T07:35:52;22.40;99.90
20546;DHT22;10431;50.228;9.112;2023-09-12T07:38:20;22.40;99.90
20546;DHT22;10431;50.228;9.112;2023-09-12T07:40:46;22.40;99.90
20546;DHT22;10431;50.228;9.112;2023-09-12T07:43:12;22.50;99.90
20546;DHT22;10431;50.228;9.112;2023-09-12T07:45:39;22.50;99.90
20546;DHT22;10431;50.228;9.112;2023-09-12T07:48:09;22.50;99.90
20546;DHT22;10431;50.228;9.112;2023-09-12T07:50:37;22.50;99.90
20546;DHT22;10431;50.228;9.112;2023-09-12T07:53:06;22.50;99.90
20546;DHT22;10431;50.228;9.112;2023-09-12T07:55:39;22.50;99.90
20546;DHT22;10431;50.228;9.112;2023-09-12T07:58:16;22.60;99.90
20546;DHT22;10431;50.228;9.112;2023-09-12T08:00:46;22.70;99.90
20546;DHT22;10431;50.228;9.112;2023-09-12T08:03:13;22.70;99.90
20546;DHT22;10431;50.228;9.112;2023-09-12T08:05:39;22.70;99.90
20546;DHT22;10431;50.228;9.112;2023-09-12T08:08:05;22.70;99.90
20546;DHT22;10431;50.228;9.112;2023-09-12T08:10:32;22.70;99.90
20546;DHT22;10431;50.228;9.112;2023-09-12T08:12:58;22.70;99.90
20546;DHT22;10431;50.228;9.112;2023-09-12T08:15:24;22.70;99.90
20546;DHT22;10431;50.228;9.112;2023-09-12T08:17:51;22.70;99.90
20546;DHT22;10431;50.228;9.112;2023-09-12T08:20:20;22.70;99.90
20546;DHT22;10431;50.228;9.112;2023-09-12T08:22:46;22.90;99.90
20546;DHT22;10431;50.228;9.112;2023-09-12T08:25:13;22.90;99.90
20546;DHT22;10431;50.228;9.112;2023-09-12T08:27:40;23.00;99.90
20546;DHT22;10431;50.228;9.112;2023-09-12T08:30:08;23.00;99.90
20546;DHT22;10431;50.228;9.112;2023-09-12T08:32:35;23.10;99.90
20546;DHT22;10431;50.228;9.112;2023-09-12T08:35:01;23.00;99.90
20546;DHT22;10431;50.228;9.112;2023-09-12T08:37:29;23.10;99.90
20546;DHT22;10431;50.228;9.112;2023-09-12T08:39:55;23.10;99.90
20546;DHT22;10431;50.228;9.112;2023-09-12T08:42:26;23.20;99.90
20546;DHT22;10431;50.228;9.112;2023-09-12T08:44:56;23.20;99.90
20546;DHT22;10431;50.228;9.112;2023-09-12T08:47:23;23.30;99.90
20546;DHT22;10431;50.228;9.112;2023-09-12T08:49:51;23.30;99.90
20546;DHT22;10431;50.228;9.112;2023-09-12T08:52:17;23.30;99.90
20546;DHT22;10431;50.228;9.112;2023-09-12T08:54:43;23.30;99.90
20546;DHT22;10431;50.228;9.112;2023-09-12T08:57:10;23.30;99.90
20546;DHT22;10431;50.228;9.112;2023-09-12T08:59:38;23.30;99.90
20546;DHT22;10431;50.228;9.112;2023-09-12T09:02:07;23.30;99.90
20546;DHT22;10431;50.228;9.112;2023-09-12T09:04:35;23.40;99.90
20546;DHT22;10431;50.228;9.112;2023-09-12T09:07:03;23.40;99.90
20546;DHT22;10431;50.228;9.112;2023-09-12T09:09:30;23.40;99.90
20546;DHT22;10431;50.228;9.112;2023-09-12T09:11:57;23.40;99.90
20546;DHT22;10431;50.228;9.112;2023-09-12T09:14:23;23.40;99.90
20546;DHT22;10431;50.228;9.112;2023-09-12T09:16:50;23.40;99.90
20546;DHT22;10431;50.228;9.112;2023-09-12T09:19:16;23.40;99.90
20546;DHT22;10431;50.228;9.112;2023-09-12T09:21:44;23.40;99.90
20546;DHT22;10431;50.228;9.112;2023-09-12T09:24:12;23.50;99.90
20546;DHT22;10431;50.228;9.112;2023-09-12T09:26:48;23.50;99.90
20546;DHT22;10431;50.228;9.112;2023-09-12T09:29:18;23.50;99.90
20546;DHT22;10431;50.228;9.112;2023-09-12T09:31:48;23.50;99.90
20546;DHT22;10431;50.228;9.112;2023-09-12T09:34:18;23.40;99.90
20546;DHT22;10431;50.228;9.112;2023-09-12T09:36:48;23.40;99.90
20546;DHT22;10431;50.228;9.112;2023-09-12T09:39:16;23.40;99.90
20546;DHT22;10431;50.228;9.112;2023-09-12T09:41:50;23.40;99.90
20546;DHT22;10431;50.228;9.112;2023-09-12T09:44:16;23.60;99.90
20546;DHT22;10431;50.228;9.112;2023-09-12T09:46:43;23.60;99.90
20546;DHT22;10431;50.228;9.112;2023-09-12T09:49:10;23.60;99.90
20546;DHT22;10431;50.228;9.112;2023-09-12T09:51:41;23.70;99.90
20546;DHT22;10431;50.228;9.112;2023-09-12T09:54:14;23.70;99.90
20546;DHT22;10431;50.228;9.112;2023-09-12T09:59:17;23.70;99.90
20546;DHT22;10431;50.228;9.112;2023-09-12T10:01:45;23.70;99.90
20546;DHT22;10431;50.228;9.112;2023-09-12T10:04:12;23.60;99.90
20546;DHT22;10431;50.228;9.112;2023-09-12T10:06:38;23.70;99.90
20546;DHT22;10431;50.228;9.112;2023-09-12T10:09:12;23.60;99.90
20546;DHT22;10431;50.228;9.112;2023-09-12T10:11:40;23.60;99.90
20546;DHT22;10431;50.228;9.112;2023-09-12T10:14:07;23.70;99.90
20546;DHT22;10431;50.228;9.112;2023-09-12T10:16:35;23.60;99.90
20546;DHT22;10431;50.228;9.112;2023-09-12T10:19:22;23.60;99.90
20546;DHT22;10431;50.228;9.112;2023-09-12T10:24:18;23.60;99.90
20546;DHT22;10431;50.228;9.112;2023-09-12T10:26:50;23.60;99.90
20546;DHT22;10431;50.228;9.112;2023-09-12T10:29:16;23.60;99.90
20546;DHT22;10431;50.228;9.112;2023-09-12T10:31:43;23.60;99.90
20546;DHT22;10431;50.228;9.112;2023-09-12T10:34:11;23.60;99.90
20546;DHT22;10431;50.228;9.112;2023-09-12T10:36:40;23.60;99.90
20546;DHT22;10431;50.228;9.112;2023-09-12T10:39:10;23.60;99.90
20546;DHT22;10431;50.228;9.112;2023-09-12T10:41:41;23.60;99.90
20546;DHT22;10431;50.228;9.112;2023-09-12T10:44:11;23.60;99.90
20546;DHT22;10431;50.228;9.112;2023-09-12T10:46:41;23.60;99.90
20546;DHT22;10431;50.228;9.112;2023-09-12T10:49:12;23.60;99.90
20546;DHT22;10431;50.228;9.112;2023-09-12T10:51:43;23.70;99.90
20546;DHT22;10431;50.228;9.112;2023-09-12T10:57:17;23.70;99.90
20546;DHT22;10431;50.228;9.112;2023-09-12T11:02:39;23.70;99.90
20546;DHT22;10431;50.228;9.112;2023-09-12T11:05:36;23.70;99.90
20546;DHT22;10431;50.228;9.112;2023-09-12T11:08:00;23.70;99.90
20546;DHT22;10431;50.228;9.112;2023-09-12T11:10:27;23.90;99.90
20546;DHT22;10431;50.228;9.112;2023-09-12T11:12:55;24.10;99.90
20546;DHT22;10431;50.228;9.112;2023-09-12T11:15:24;24.20;99.90
20546;DHT22;10431;50.228;9.112;2023-09-12T11:18:01;24.20;99.90
20546;DHT22;10431;50.228;9.112;2023-09-12T11:21:00;24.30;99.90
20546;DHT22;10431;50.228;9.112;2023-09-12T11:23:29;24.40;99.90
20546;DHT22;10431;50.228;9.112;2023-09-12T11:26:08;24.40;99.90
20546;DHT22;10431;50.228;9.112;2023-09-12T11:28:36;24.40;99.90
20546;DHT22;10431;50.228;9.112;2023-09-12T11:31:04;24.40;99.90
20546;DHT22;10431;50.228;9.112;2023-09-12T11:33:31;24.40;99.90
20546;DHT22;10431;50.228;9.112;2023-09-12T11:35:58;24.40;99.90
20546;DHT22;10431;50.228;9.112;2023-09-12T11:38:28;24.40;99.90
20546;DHT22;10431;50.228;9.112;2023-09-12T11:40:55;24.40;99.90
20546;DHT22;10431;50.228;9.112;2023-09-12T11:43:26;24.40;99.90
20546;DHT22;10431;50.228;9.112;2023-09-12T11:45:54;24.40;99.90
20546;DHT22;10431;50.228;9.112;2023-09-12T11:48:21;24.50;99.90
20546;DHT22;10431;50.228;9.112;2023-09-12T11:50:52;24.50;99.90
20546;DHT22;10431;50.228;9.112;2023-09-12T11:53:24;24.50;99.90
20546;DHT22;10431;50.228;9.112;2023-09-12T11:55:54;24.60;99.90
20546;DHT22;10431;50.228;9.112;2023-09-12T11:58:21;24.40;99.90
20546;DHT22;10431;50.228;9.112;2023-09-12T12:00:49;24.40;99.90
20546;DHT22;10431;50.228;9.112;2023-09-12T12:03:16;24.20;99.90
20546;DHT22;10431;50.228;9.112;2023-09-12T12:05:43;24.10;99.90
20546;DHT22;10431;50.228;9.112;2023-09-12T12:08:11;24.00;99.90
20546;DHT22;10431;50.228;9.112;2023-09-12T12:10:37;23.90;99.90
20546;DHT22;10431;50.228;9.112;2023-09-12T12:13:11;23.90;99.90
20546;DHT22;10431;50.228;9.112;2023-09-12T12:15:37;23.80;99.90
20546;DHT22;10431;50.228;9.112;2023-09-12T12:18:04;23.80;99.90
20546;DHT22;10431;50.228;9.112;2023-09-12T12:20:30;23.80;99.90
20546;DHT22;10431;50.228;9.112;2023-09-12T12:22:56;23.70;99.90
20546;DHT22;10431;50.228;9.112;2023-09-12T12:25:23;23.70;99.90
20546;DHT22;10431;50.228;9.112;2023-09-12T12:27:49;23.70;99.90
20546;DHT22;10431;50.228;9.112;2023-09-12T12:30:16;23.70;99.90
20546;DHT22;10431;50.228;9.112;2023-09-12T12:32:45;23.70;99.90
20546;DHT22;10431;50.228;9.112;2023-09-12T12:35:21;23.70;99.90
20546;DHT22;10431;50.228;9.112;2023-09-12T12:37:49;23.70;99.90
20546;DHT22;10431;50.228;9.112;2023-09-12T12:40:16;23.70;99.90
20546;DHT22;10431;50.228;9.112;2023-09-12T12:42:43;23.70;99.90
20546;DHT22;10431;50.228;9.112;2023-09-12T12:45:14;23.70;99.90
20546;DHT22;10431;50.228;9.112;2023-09-12T12:47:41;23.70;99.90
20546;DHT22;10431;50.228;9.112;2023-09-12T12:50:14;23.70;99.90
20546;DHT22;10431;50.228;9.112;2023-09-12T12:52:41;23.70;99.90
20546;DHT22;10431;50.228;9.112;2023-09-12T12:55:12;23.70;99.90
20546;DHT22;10431;50.228;9.112;2023-09-12T12:57:42;23.90;99.90
20546;DHT22;10431;50.228;9.112;2023-09-12T13:00:11;23.90;99.90
20546;DHT22;10431;50.228;9.112;2023-09-12T13:02:38;23.90;99.90
20546;DHT22;10431;50.228;9.112;2023-09-12T13:05:25;23.90;99.90
20546;DHT22;10431;50.228;9.112;2023-09-12T13:07:52;23.90;99.90
20546;DHT22;10431;50.228;9.112;2023-09-12T13:10:19;23.80;99.90
20546;DHT22;10431;50.228;9.112;2023-09-12T13:12:46;23.80;99.90
20546;DHT22;10431;50.228;9.112;2023-09-12T13:15:13;23.80;99.90
20546;DHT22;10431;50.228;9.112;2023-09-12T13:17:40;23.80;99.90
20546;DHT22;10431;50.228;9.112;2023-09-12T13:20:07;23.80;99.90
20546;DHT22;10431;50.228;9.112;2023-09-12T13:22:38;23.80;99.90
20546;DHT22;10431;50.228;9.112;2023-09-12T13:25:06;23.80;99.90
20546;DHT22;10431;50.228;9.112;2023-09-12T13:27:32;23.80;99.90
20546;DHT22;10431;50.228;9.112;2023-09-12T13:29:59;23.80;99.90
20546;DHT22;10431;50.228;9.112;2023-09-12T13:32:25;23.70;99.90
20546;DHT22;10431;50.228;9.112;2023-09-12T13:34:53;23.80;99.90
20546;DHT22;10431;50.228;9.112;2023-09-12T13:37:19;23.80;99.90
20546;DHT22;10431;50.228;9.112;2023-09-12T13:39:45;23.90;99.90
20546;DHT22;10431;50.228;9.112;2023-09-12T13:42:16;24.10;99.90
20546;DHT22;10431;50.228;9.112;2023-09-12T13:44:47;24.30;99.90
20546;DHT22;10431;50.228;9.112;2023-09-12T13:47:14;24.60;99.90
20546;DHT22;10431;50.228;9.112;2023-09-12T13:49:47;24.60;99.90
20546;DHT22;10431;50.228;9.112;2023-09-12T13:52:13;24.60;99.90
20546;DHT22;10431;50.228;9.112;2023-09-12T13:54:42;24.60;99.90
20546;DHT22;10431;50.228;9.112;2023-09-12T13:57:08;24.70;99.90
20546;DHT22;10431;50.228;9.112;2023-09-12T13:59:35;24.60;99.90
20546;DHT22;10431;50.228;9.112;2023-09-12T14:02:01;24.70;99.90
20546;DHT22;10431;50.228;9.112;2023-09-12T14:04:27;24.70;99.90
20546;DHT22;10431;50.228;9.112;2023-09-12T14:06:53;24.70;99.90
20546;DHT22;10431;50.228;9.112;2023-09-12T14:09:20;24.70;99.90
20546;DHT22;10431;50.228;9.112;2023-09-12T14:11:46;24.70;99.90
20546;DHT22;10431;50.228;9.112;2023-09-12T14:14:13;24.70;99.90
20546;DHT22;10431;50.228;9.112;2023-09-12T14:16:39;24.90;99.90
20546;DHT22;10431;50.228;9.112;2023-09-12T14:19:06;25.00;99.90
20546;DHT22;10431;50.228;9.112;2023-09-12T14:21:32;24.90;99.90
20546;DHT22;10431;50.228;9.112;2023-09-12T14:23:58;24.90;99.90
20546;DHT22;10431;50.228;9.112;2023-09-12T14:26:24;24.90;99.90
20546;DHT22;10431;50.228;9.112;2023-09-12T14:28:50;24.80;99.90
20546;DHT22;10431;50.228;9.112;2023-09-12T14:31:16;24.80;99.90
20546;DHT22;10431;50.228;9.112;2023-09-12T14:33:43;24.90;99.90
20546;DHT22;10431;50.228;9.112;2023-09-12T14:36:09;24.80;99.90
20546;DHT22;10431;50.228;9.112;2023-09-12T14:38:36;24.90;99.90
20546;DHT22;10431;50.228;9.112;2023-09-12T14:41:02;24.80;99.90
20546;DHT22;10431;50.228;9.112;2023-09-12T14:43:28;24.80;99.90
20546;DHT22;10431;50.228;9.112;2023-09-12T14:45:55;24.80;99.90
20546;DHT22;10431;50.228;9.112;2023-09-12T14:48:21;24.80;99.90
20546;DHT22;10431;50.228;9.112;2023-09-12T14:50:48;24.80;99.90
20546;DHT22;10431;50.228;9.112;2023-09-12T14:53:17;24.90;99.90
20546;DHT22;10431;50.228;9.112;2023-09-12T14:55:43;24.80;99.90
20546;DHT22;10431;50.228;9.112;2023-09-12T14:58:09;24.90;99.90
20546;DHT22;10431;50.228;9.112;2023-09-12T15:00:36;24.90;99.90
20546;DHT22;10431;50.228;9.112;2023-09-12T15:03:04;24.90;99.90
20546;DHT22;10431;50.228;9.112;2023-09-12T15:05:30;24.90;99.90
20546;DHT22;10431;50.228;9.112;2023-09-12T15:07:56;24.90;99.90
20546;DHT22;10431;50.228;9.112;2023-09-12T15:10:23;24.90;99.90
20546;DHT22;10431;50.228;9.112;2023-09-12T15:12:49;24.90;99.90
20546;DHT22;10431;50.228;9.112;2023-09-12T15:15:15;24.90;99.90
20546;DHT22;10431;50.228;9.112;2023-09-12T15:17:41;24.90;99.90
20546;DHT22;10431;50.228;9.112;2023-09-12T15:20:08;24.90;99.90
20546;DHT22;10431;50.228;9.112;2023-09-12T15:22:35;24.90;99.90
20546;DHT22;10431;50.228;9.112;2023-09-12T15:25:03;25.00;99.90
20546;DHT22;10431;50.228;9.112;2023-09-12T15:27:29;25.00;99.90
20546;DHT22;10431;50.228;9.112;2023-09-12T15:29:55;25.00;99.90
20546;DHT22;10431;50.228;9.112;2023-09-12T15:32:21;25.00;99.90
20546;DHT22;10431;50.228;9.112;2023-09-12T15:34:48;24.90;99.90
20546;DHT22;10431;50.228;9.112;2023-09-12T15:37:14;25.00;99.90
20546;DHT22;10431;50.228;9.112;2023-09-12T15:39:40;24.90;99.90
20546;DHT22;10431;50.228;9.112;2023-09-12T15:42:06;24.90;99.90
20546;DHT22;10431;50.228;9.112;2023-09-12T15:44:33;24.90;99.90
20546;DHT22;10431;50.228;9.112;2023-09-12T15:46:59;24.80;99.90